sensor_id;sensor_type;location;lat;lon;timestamp;P1;durP1;ratioP1;P2;durP2;ratioP2
21569;SDS011;57598;50.888;4.746;2022-11-15T00:00:33;155.88;;;145.57;;
21569;SDS011;57598;50.888;4.746;2022-11-15T00:03:00;158.55;;;148.25;;
21569;SDS011;57598;50.888;4.746;2022-11-15T00:05:28;143.63;;;134.02;;
21569;SDS011;57598;50.888;4.746;2022-11-15T00:07:57;130.82;;;122.22;;
21569;SDS011;57598;50.888;4.746;2022-11-15T00:10:24;122.80;;;114.45;;
21569;SDS011;57598;50.888;4.746;2022-11-15T00:12:52;118.55;;;110.05;;
21569;SDS011;57598;50.888;4.746;2022-11-15T00:15:19;114.95;;;107.13;;
21569;SDS011;57598;50.888;4.746;2022-11-15T00:17:48;106.82;;;99.43;;
21569;SDS011;57598;50.888;4.746;2022-11-15T00:20:15;100.22;;;92.88;;
21569;SDS011;57598;50.888;4.746;2022-11-15T00:22:43;86.38;;;80.07;;
21569;SDS011;57598;50.888;4.746;2022-11-15T00:25:11;80.95;;;74.95;;
21569;SDS011;57598;50.888;4.746;2022-11-15T00:27:39;74.82;;;69.18;;
21569;SDS011;57598;50.888;4.746;2022-11-15T00:30:06;73.85;;;68.25;;
21569;SDS011;57598;50.888;4.746;2022-11-15T00:32:33;76.32;;;70.05;;
21569;SDS011;57598;50.888;4.746;2022-11-15T00:35:01;64.70;;;59.60;;
21569;SDS011;57598;50.888;4.746;2022-11-15T00:37:28;68.75;;;63.45;;
21569;SDS011;57598;50.888;4.746;2022-11-15T00:39:55;66.55;;;61.30;;
21569;SDS011;57598;50.888;4.746;2022-11-15T00:42:23;65.57;;;60.40;;
21569;SDS011;57598;50.888;4.746;2022-11-15T00:44:51;67.68;;;62.38;;
21569;SDS011;57598;50.888;4.746;2022-11-15T00:47:18;66.57;;;61.30;;
21569;SDS011;57598;50.888;4.746;2022-11-15T00:49:45;63.47;;;58.45;;
21569;SDS011;57598;50.888;4.746;2022-11-15T00:52:12;64.32;;;59.17;;
21569;SDS011;57598;50.888;4.746;2022-11-15T00:54:39;64.65;;;59.47;;
21569;SDS011;57598;50.888;4.746;2022-11-15T00:57:07;66.60;;;61.28;;
21569;SDS011;57598;50.888;4.746;2022-11-15T00:59:35;67.90;;;62.50;;
21569;SDS011;57598;50.888;4.746;2022-11-15T01:02:02;65.68;;;60.33;;
21569;SDS011;57598;50.888;4.746;2022-11-15T01:04:30;66.30;;;60.90;;
21569;SDS011;57598;50.888;4.746;2022-11-15T01:06:57;75.93;;;69.93;;
21569;SDS011;57598;50.888;4.746;2022-11-15T01:09:24;66.13;;;60.72;;
21569;SDS011;57598;50.888;4.746;2022-11-15T01:11:51;65.65;;;60.25;;
21569;SDS011;57598;50.888;4.746;2022-11-15T01:14:19;60.72;;;55.53;;
21569;SDS011;57598;50.888;4.746;2022-11-15T01:16:47;60.65;;;55.55;;
21569;SDS011;57598;50.888;4.746;2022-11-15T01:19:14;60.08;;;54.97;;
21569;SDS011;57598;50.888;4.746;2022-11-15T01:21:42;59.00;;;53.70;;
21569;SDS011;57598;50.888;4.746;2022-11-15T01:24:09;56.75;;;51.88;;
21569;SDS011;57598;50.888;4.746;2022-11-15T01:26:38;55.80;;;50.90;;
21569;SDS011;57598;50.888;4.746;2022-11-15T01:29:05;54.38;;;49.67;;
21569;SDS011;57598;50.888;4.746;2022-11-15T01:31:33;55.88;;;51.08;;
21569;SDS011;57598;50.888;4.746;2022-11-15T01:34:01;50.22;;;45.83;;
21569;SDS011;57598;50.888;4.746;2022-11-15T01:36:28;52.60;;;48.00;;
21569;SDS011;57598;50.888;4.746;2022-11-15T01:38:56;49.00;;;44.70;;
21569;SDS011;57598;50.888;4.746;2022-11-15T01:41:24;49.58;;;45.17;;
21569;SDS011;57598;50.888;4.746;2022-11-15T01:43:52;49.65;;;45.03;;
21569;SDS011;57598;50.888;4.746;2022-11-15T01:46:22;47.10;;;42.90;;
21569;SDS011;57598;50.888;4.746;2022-11-15T01:48:51;49.17;;;44.75;;
21569;SDS011;57598;50.888;4.746;2022-11-15T01:51:21;47.20;;;42.95;;
21569;SDS011;57598;50.888;4.746;2022-11-15T01:53:50;52.60;;;47.07;;
21569;SDS011;57598;50.888;4.746;2022-11-15T01:56:19;47.97;;;43.67;;
21569;SDS011;57598;50.888;4.746;2022-11-15T01:58:48;50.42;;;45.58;;
21569;SDS011;57598;50.888;4.746;2022-11-15T02:01:16;45.83;;;41.63;;
21569;SDS011;57598;50.888;4.746;2022-11-15T02:03:44;47.88;;;43.42;;
21569;SDS011;57598;50.888;4.746;2022-11-15T02:06:15;47.70;;;43.42;;
21569;SDS011;57598;50.888;4.746;2022-11-15T02:08:43;46.45;;;42.15;;
21569;SDS011;57598;50.888;4.746;2022-11-15T02:11:11;47.33;;;43.10;;
21569;SDS011;57598;50.888;4.746;2022-11-15T02:13:38;48.33;;;43.92;;
21569;SDS011;57598;50.888;4.746;2022-11-15T02:16:08;46.80;;;42.60;;
21569;SDS011;57598;50.888;4.746;2022-11-15T02:18:38;45.05;;;40.95;;
21569;SDS011;57598;50.888;4.746;2022-11-15T02:21:14;45.00;;;40.90;;
21569;SDS011;57598;50.888;4.746;2022-11-15T02:26:35;48.42;;;44.10;;
21569;SDS011;57598;50.888;4.746;2022-11-15T02:29:07;47.05;;;42.75;;
21569;SDS011;57598;50.888;4.746;2022-11-15T02:31:41;43.50;;;39.50;;
21569;SDS011;57598;50.888;4.746;2022-11-15T02:34:11;44.67;;;40.55;;
21569;SDS011;57598;50.888;4.746;2022-11-15T02:36:43;42.78;;;38.88;;
21569;SDS011;57598;50.888;4.746;2022-11-15T02:39:18;42.75;;;38.78;;
21569;SDS011;57598;50.888;4.746;2022-11-15T02:41:53;42.60;;;38.60;;
21569;SDS011;57598;50.888;4.746;2022-11-15T02:44:21;44.10;;;40.00;;
21569;SDS011;57598;50.888;4.746;2022-11-15T02:46:51;43.75;;;39.70;;
21569;SDS011;57598;50.888;4.746;2022-11-15T02:49:36;43.45;;;39.45;;
21569;SDS011;57598;50.888;4.746;2022-11-15T02:52:04;43.97;;;39.97;;
21569;SDS011;57598;50.888;4.746;2022-11-15T02:54:32;42.70;;;38.75;;
21569;SDS011;57598;50.888;4.746;2022-11-15T02:57:00;42.00;;;38.10;;
21569;SDS011;57598;50.888;4.746;2022-11-15T03:02:34;42.17;;;38.25;;
21569;SDS011;57598;50.888;4.746;2022-11-15T03:05:04;41.10;;;37.30;;
21569;SDS011;57598;50.888;4.746;2022-11-15T03:07:36;43.63;;;39.63;;
21569;SDS011;57598;50.888;4.746;2022-11-15T03:10:06;46.67;;;42.38;;
21569;SDS011;57598;50.888;4.746;2022-11-15T03:12:34;41.60;;;37.70;;
21569;SDS011;57598;50.888;4.746;2022-11-15T03:15:05;44.75;;;40.55;;
21569;SDS011;57598;50.888;4.746;2022-11-15T03:17:35;40.95;;;37.15;;
21569;SDS011;57598;50.888;4.746;2022-11-15T03:20:04;42.55;;;38.65;;
21569;SDS011;57598;50.888;4.746;2022-11-15T03:22:33;42.17;;;38.28;;
21569;SDS011;57598;50.888;4.746;2022-11-15T03:25:03;42.95;;;39.05;;
21569;SDS011;57598;50.888;4.746;2022-11-15T03:27:33;43.47;;;39.47;;
21569;SDS011;57598;50.888;4.746;2022-11-15T03:30:03;41.60;;;37.70;;
21569;SDS011;57598;50.888;4.746;2022-11-15T03:32:31;41.50;;;37.60;;
21569;SDS011;57598;50.888;4.746;2022-11-15T03:35:04;41.45;;;37.55;;
21569;SDS011;57598;50.888;4.746;2022-11-15T03:37:33;40.80;;;37.00;;
21569;SDS011;57598;50.888;4.746;2022-11-15T03:40:00;42.63;;;38.67;;
21569;SDS011;57598;50.888;4.746;2022-11-15T03:42:30;41.92;;;38.13;;
21569;SDS011;57598;50.888;4.746;2022-11-15T03:44:59;42.03;;;38.25;;
21569;SDS011;57598;50.888;4.746;2022-11-15T03:47:29;42.58;;;38.67;;
21569;SDS011;57598;50.888;4.746;2022-11-15T03:49:58;43.58;;;39.40;;
21569;SDS011;57598;50.888;4.746;2022-11-15T03:52:30;43.72;;;39.63;;
21569;SDS011;57598;50.888;4.746;2022-11-15T03:54:58;41.72;;;37.92;;
21569;SDS011;57598;50.888;4.746;2022-11-15T03:57:27;42.05;;;38.15;;
21569;SDS011;57598;50.888;4.746;2022-11-15T03:59:54;44.05;;;39.75;;
21569;SDS011;57598;50.888;4.746;2022-11-15T04:02:21;44.17;;;39.47;;
21569;SDS011;57598;50.888;4.746;2022-11-15T04:04:49;41.33;;;37.45;;
21569;SDS011;57598;50.888;4.746;2022-11-15T04:07:16;40.95;;;37.10;;
21569;SDS011;57598;50.888;4.746;2022-11-15T04:09:44;42.10;;;38.20;;
21569;SDS011;57598;50.888;4.746;2022-11-15T04:12:25;42.42;;;38.47;;
21569;SDS011;57598;50.888;4.746;2022-11-15T04:14:57;42.63;;;38.72;;
21569;SDS011;57598;50.888;4.746;2022-11-15T04:17:34;43.00;;;38.90;;
21569;SDS011;57598;50.888;4.746;2022-11-15T04:20:02;42.67;;;38.67;;
21569;SDS011;57598;50.888;4.746;2022-11-15T04:22:46;42.00;;;38.10;;
21569;SDS011;57598;50.888;4.746;2022-11-15T04:25:32;43.50;;;39.35;;
21569;SDS011;57598;50.888;4.746;2022-11-15T04:27:59;43.10;;;38.90;;
21569;SDS011;57598;50.888;4.746;2022-11-15T04:30:27;44.28;;;39.97;;
21569;SDS011;57598;50.888;4.746;2022-11-15T04:32:54;42.55;;;38.63;;
21569;SDS011;57598;50.888;4.746;2022-11-15T04:35:21;42.83;;;38.85;;
21569;SDS011;57598;50.888;4.746;2022-11-15T04:37:48;44.00;;;39.95;;
21569;SDS011;57598;50.888;4.746;2022-11-15T04:40:15;42.88;;;38.90;;
21569;SDS011;57598;50.888;4.746;2022-11-15T04:42:44;44.33;;;39.28;;
21569;SDS011;57598;50.888;4.746;2022-11-15T04:45:11;44.38;;;39.63;;
21569;SDS011;57598;50.888;4.746;2022-11-15T04:47:39;44.85;;;40.65;;
21569;SDS011;57598;50.888;4.746;2022-11-15T04:50:06;44.40;;;40.20;;
21569;SDS011;57598;50.888;4.746;2022-11-15T04:52:33;45.75;;;41.58;;
21569;SDS011;57598;50.888;4.746;2022-11-15T04:55:00;45.28;;;41.03;;
21569;SDS011;57598;50.888;4.746;2022-11-15T04:57:28;45.15;;;41.05;;
21569;SDS011;57598;50.888;4.746;2022-11-15T04:59:56;43.53;;;39.47;;
21569;SDS011;57598;50.888;4.746;2022-11-15T05:02:23;45.80;;;41.45;;
21569;SDS011;57598;50.888;4.746;2022-11-15T05:05:11;44.20;;;40.15;;
21569;SDS011;57598;50.888;4.746;2022-11-15T05:07:37;44.50;;;40.30;;
21569;SDS011;57598;50.888;4.746;2022-11-15T05:10:05;43.45;;;39.45;;
21569;SDS011;57598;50.888;4.746;2022-11-15T05:12:32;46.72;;;42.33;;
21569;SDS011;57598;50.888;4.746;2022-11-15T05:15:00;44.95;;;40.85;;
21569;SDS011;57598;50.888;4.746;2022-11-15T05:17:28;44.83;;;40.83;;
21569;SDS011;57598;50.888;4.746;2022-11-15T05:19:55;46.20;;;42.20;;
21569;SDS011;57598;50.888;4.746;2022-11-15T05:22:22;46.65;;;42.65;;
21569;SDS011;57598;50.888;4.746;2022-11-15T05:24:50;43.63;;;39.72;;
21569;SDS011;57598;50.888;4.746;2022-11-15T05:27:17;45.90;;;42.00;;
21569;SDS011;57598;50.888;4.746;2022-11-15T05:29:44;43.35;;;39.45;;
21569;SDS011;57598;50.888;4.746;2022-11-15T05:32:13;45.97;;;41.97;;
21569;SDS011;57598;50.888;4.746;2022-11-15T05:34:40;47.20;;;43.00;;
21569;SDS011;57598;50.888;4.746;2022-11-15T05:37:07;44.63;;;40.53;;
21569;SDS011;57598;50.888;4.746;2022-11-15T05:39:34;44.78;;;40.67;;
21569;SDS011;57598;50.888;4.746;2022-11-15T05:42:02;43.28;;;39.38;;
21569;SDS011;57598;50.888;4.746;2022-11-15T05:44:33;43.60;;;39.70;;
21569;SDS011;57598;50.888;4.746;2022-11-15T05:47:01;44.42;;;40.33;;
21569;SDS011;57598;50.888;4.746;2022-11-15T05:49:32;45.00;;;41.10;;
21569;SDS011;57598;50.888;4.746;2022-11-15T05:52:01;46.03;;;41.95;;
21569;SDS011;57598;50.888;4.746;2022-11-15T05:54:30;45.25;;;41.15;;
21569;SDS011;57598;50.888;4.746;2022-11-15T05:56:58;43.65;;;39.83;;
21569;SDS011;57598;50.888;4.746;2022-11-15T05:59:27;44.38;;;40.47;;
21569;SDS011;57598;50.888;4.746;2022-11-15T06:01:55;45.42;;;41.53;;
21569;SDS011;57598;50.888;4.746;2022-11-15T06:04:22;45.78;;;41.53;;
21569;SDS011;57598;50.888;4.746;2022-11-15T06:06:51;46.50;;;42.60;;
21569;SDS011;57598;50.888;4.746;2022-11-15T06:09:18;46.80;;;42.80;;
21569;SDS011;57598;50.888;4.746;2022-11-15T06:11:45;46.15;;;42.17;;
21569;SDS011;57598;50.888;4.746;2022-11-15T06:14:12;45.88;;;41.88;;
21569;SDS011;57598;50.888;4.746;2022-11-15T06:16:40;43.45;;;39.75;;
21569;SDS011;57598;50.888;4.746;2022-11-15T06:19:07;48.78;;;44.58;;
21569;SDS011;57598;50.888;4.746;2022-11-15T06:21:34;46.15;;;42.17;;
21569;SDS011;57598;50.888;4.746;2022-11-15T06:24:03;44.28;;;40.47;;
21569;SDS011;57598;50.888;4.746;2022-11-15T06:26:31;47.75;;;43.85;;
21569;SDS011;57598;50.888;4.746;2022-11-15T06:28:58;46.50;;;42.60;;
21569;SDS011;57598;50.888;4.746;2022-11-15T06:31:26;48.22;;;44.28;;
21569;SDS011;57598;50.888;4.746;2022-11-15T06:33:53;49.28;;;45.47;;
21569;SDS011;57598;50.888;4.746;2022-11-15T06:36:20;48.33;;;44.30;;
21569;SDS011;57598;50.888;4.746;2022-11-15T06:38:47;50.08;;;46.08;;
21569;SDS011;57598;50.888;4.746;2022-11-15T06:41:16;46.38;;;42.67;;
21569;SDS011;57598;50.888;4.746;2022-11-15T06:43:43;48.83;;;45.13;;
21569;SDS011;57598;50.888;4.746;2022-11-15T06:46:10;42.72;;;39.05;;
21569;SDS011;57598;50.888;4.746;2022-11-15T06:48:38;43.38;;;39.88;;
21569;SDS011;57598;50.888;4.746;2022-11-15T06:51:05;50.03;;;46.35;;
21569;SDS011;57598;50.888;4.746;2022-11-15T06:53:33;46.78;;;42.60;;
21569;SDS011;57598;50.888;4.746;2022-11-15T06:56:00;50.33;;;46.53;;
21569;SDS011;57598;50.888;4.746;2022-11-15T06:58:29;47.47;;;43.67;;
21569;SDS011;57598;50.888;4.746;2022-11-15T07:01:00;48.58;;;44.72;;
21569;SDS011;57598;50.888;4.746;2022-11-15T07:03:27;46.50;;;42.90;;
21569;SDS011;57598;50.888;4.746;2022-11-15T07:05:55;44.17;;;40.67;;
21569;SDS011;57598;50.888;4.746;2022-11-15T07:08:22;43.88;;;40.38;;
21569;SDS011;57598;50.888;4.746;2022-11-15T07:10:50;45.58;;;41.78;;
21569;SDS011;57598;50.888;4.746;2022-11-15T07:13:17;46.35;;;42.65;;
21569;SDS011;57598;50.888;4.746;2022-11-15T07:15:46;45.00;;;41.50;;
21569;SDS011;57598;50.888;4.746;2022-11-15T07:18:13;43.53;;;39.95;;
21569;SDS011;57598;50.888;4.746;2022-11-15T07:20:40;45.58;;;41.95;;
21569;SDS011;57598;50.888;4.746;2022-11-15T07:23:07;44.83;;;41.33;;
21569;SDS011;57598;50.888;4.746;2022-11-15T07:25:35;44.00;;;40.45;;
21569;SDS011;57598;50.888;4.746;2022-11-15T07:28:02;45.13;;;41.60;;
21569;SDS011;57598;50.888;4.746;2022-11-15T07:30:29;42.42;;;39.03;;
21569;SDS011;57598;50.888;4.746;2022-11-15T07:32:58;43.75;;;40.35;;
21569;SDS011;57598;50.888;4.746;2022-11-15T07:35:27;45.70;;;42.20;;
21569;SDS011;57598;50.888;4.746;2022-11-15T07:37:55;44.00;;;40.50;;
21569;SDS011;57598;50.888;4.746;2022-11-15T07:40:22;43.65;;;40.45;;
21569;SDS011;57598;50.888;4.746;2022-11-15T07:42:49;42.22;;;39.03;;
21569;SDS011;57598;50.888;4.746;2022-11-15T07:45:21;44.40;;;41.20;;
21569;SDS011;57598;50.888;4.746;2022-11-15T07:47:48;42.60;;;39.42;;
21569;SDS011;57598;50.888;4.746;2022-11-15T07:50:17;41.53;;;38.53;;
21569;SDS011;57598;50.888;4.746;2022-11-15T07:52:45;44.80;;;41.60;;
21569;SDS011;57598;50.888;4.746;2022-11-15T07:55:12;41.95;;;38.75;;
21569;SDS011;57598;50.888;4.746;2022-11-15T07:57:39;45.00;;;41.70;;
21569;SDS011;57598;50.888;4.746;2022-11-15T08:00:07;42.92;;;39.72;;
21569;SDS011;57598;50.888;4.746;2022-11-15T08:02:34;40.97;;;37.78;;
21569;SDS011;57598;50.888;4.746;2022-11-15T08:05:02;41.85;;;37.85;;
21569;SDS011;57598;50.888;4.746;2022-11-15T08:07:30;41.25;;;38.15;;
21569;SDS011;57598;50.888;4.746;2022-11-15T08:09:58;41.95;;;38.85;;
21569;SDS011;57598;50.888;4.746;2022-11-15T08:12:26;41.67;;;38.58;;
21569;SDS011;57598;50.888;4.746;2022-11-15T08:14:53;54.40;;;49.20;;
21569;SDS011;57598;50.888;4.746;2022-11-15T08:17:21;41.17;;;38.17;;
21569;SDS011;57598;50.888;4.746;2022-11-15T08:19:48;43.78;;;40.45;;
21569;SDS011;57598;50.888;4.746;2022-11-15T08:22:16;49.03;;;44.53;;
21569;SDS011;57598;50.888;4.746;2022-11-15T08:24:45;40.88;;;37.97;;
21569;SDS011;57598;50.888;4.746;2022-11-15T08:27:12;42.45;;;39.35;;
21569;SDS011;57598;50.888;4.746;2022-11-15T08:29:41;43.00;;;40.20;;
21569;SDS011;57598;50.888;4.746;2022-11-15T08:32:09;42.70;;;39.67;;
21569;SDS011;57598;50.888;4.746;2022-11-15T08:34:37;42.05;;;39.15;;
21569;SDS011;57598;50.888;4.746;2022-11-15T08:37:04;38.70;;;35.72;;
21569;SDS011;57598;50.888;4.746;2022-11-15T08:39:31;33.10;;;31.10;;
21569;SDS011;57598;50.888;4.746;2022-11-15T08:42:00;30.88;;;29.17;;
21569;SDS011;57598;50.888;4.746;2022-11-15T08:44:27;28.60;;;27.00;;
21569;SDS011;57598;50.888;4.746;2022-11-15T08:46:55;26.60;;;25.10;;
21569;SDS011;57598;50.888;4.746;2022-11-15T08:49:22;25.95;;;24.45;;
21569;SDS011;57598;50.888;4.746;2022-11-15T08:51:49;25.13;;;23.73;;
21569;SDS011;57598;50.888;4.746;2022-11-15T08:54:17;25.02;;;23.52;;
21569;SDS011;57598;50.888;4.746;2022-11-15T08:56:44;24.83;;;23.42;;
21569;SDS011;57598;50.888;4.746;2022-11-15T08:59:12;26.20;;;24.70;;
21569;SDS011;57598;50.888;4.746;2022-11-15T09:01:40;27.45;;;25.85;;
21569;SDS011;57598;50.888;4.746;2022-11-15T09:04:07;25.48;;;24.08;;
21569;SDS011;57598;50.888;4.746;2022-11-15T09:06:34;25.40;;;24.00;;
21569;SDS011;57598;50.888;4.746;2022-11-15T09:09:01;26.70;;;25.20;;
21569;SDS011;57598;50.888;4.746;2022-11-15T09:11:29;27.30;;;25.80;;
21569;SDS011;57598;50.888;4.746;2022-11-15T09:13:56;30.48;;;28.55;;
21569;SDS011;57598;50.888;4.746;2022-11-15T09:16:25;28.75;;;27.15;;
21569;SDS011;57598;50.888;4.746;2022-11-15T09:18:52;27.13;;;25.63;;
21569;SDS011;57598;50.888;4.746;2022-11-15T09:21:19;24.20;;;22.90;;
21569;SDS011;57598;50.888;4.746;2022-11-15T09:23:46;22.33;;;20.88;;
21569;SDS011;57598;50.888;4.746;2022-11-15T09:26:14;21.50;;;20.20;;
21569;SDS011;57598;50.888;4.746;2022-11-15T09:28:41;20.30;;;19.10;;
21569;SDS011;57598;50.888;4.746;2022-11-15T09:31:08;20.38;;;19.17;;
21569;SDS011;57598;50.888;4.746;2022-11-15T09:33:37;22.83;;;21.33;;
21569;SDS011;57598;50.888;4.746;2022-11-15T09:36:05;19.73;;;18.63;;
21569;SDS011;57598;50.888;4.746;2022-11-15T09:38:33;19.23;;;18.10;;
21569;SDS011;57598;50.888;4.746;2022-11-15T09:43:50;19.85;;;18.55;;
21569;SDS011;57598;50.888;4.746;2022-11-15T09:46:24;18.92;;;17.83;;
21569;SDS011;57598;50.888;4.746;2022-11-15T09:48:54;22.95;;;21.15;;
21569;SDS011;57598;50.888;4.746;2022-11-15T09:51:27;19.40;;;18.30;;
21569;SDS011;57598;50.888;4.746;2022-11-15T09:54:04;18.55;;;17.45;;
21569;SDS011;57598;50.888;4.746;2022-11-15T09:56:32;18.63;;;17.38;;
21569;SDS011;57598;50.888;4.746;2022-11-15T09:59:06;19.27;;;17.88;;
21569;SDS011;57598;50.888;4.746;2022-11-15T10:01:41;22.52;;;18.48;;
21569;SDS011;57598;50.888;4.746;2022-11-15T10:04:11;18.75;;;17.58;;
21569;SDS011;57598;50.888;4.746;2022-11-15T10:06:39;18.90;;;17.80;;
21569;SDS011;57598;50.888;4.746;2022-11-15T10:09:11;18.95;;;17.85;;
21569;SDS011;57598;50.888;4.746;2022-11-15T10:11:41;18.85;;;17.50;;
21569;SDS011;57598;50.888;4.746;2022-11-15T10:14:10;18.77;;;17.42;;
21569;SDS011;57598;50.888;4.746;2022-11-15T10:19:28;19.05;;;17.73;;
21569;SDS011;57598;50.888;4.746;2022-11-15T10:22:01;18.85;;;17.75;;
21569;SDS011;57598;50.888;4.746;2022-11-15T10:24:34;20.13;;;17.98;;
21569;SDS011;57598;50.888;4.746;2022-11-15T10:27:03;17.90;;;16.90;;
21569;SDS011;57598;50.888;4.746;2022-11-15T10:29:33;18.17;;;17.13;;
21569;SDS011;57598;50.888;4.746;2022-11-15T10:32:00;18.38;;;17.27;;
21569;SDS011;57598;50.888;4.746;2022-11-15T10:34:35;18.40;;;17.30;;
21569;SDS011;57598;50.888;4.746;2022-11-15T10:37:02;18.20;;;17.00;;
21569;SDS011;57598;50.888;4.746;2022-11-15T10:39:29;17.73;;;16.73;;
21569;SDS011;57598;50.888;4.746;2022-11-15T10:41:58;18.20;;;17.20;;
21569;SDS011;57598;50.888;4.746;2022-11-15T10:44:42;19.65;;;17.65;;
21569;SDS011;57598;50.888;4.746;2022-11-15T10:50:04;16.95;;;15.95;;
21569;SDS011;57598;50.888;4.746;2022-11-15T10:52:33;17.50;;;16.45;;
21569;SDS011;57598;50.888;4.746;2022-11-15T10:55:03;19.35;;;17.67;;
21569;SDS011;57598;50.888;4.746;2022-11-15T10:57:31;16.90;;;15.90;;
21569;SDS011;57598;50.888;4.746;2022-11-15T11:00:00;16.80;;;15.80;;
21569;SDS011;57598;50.888;4.746;2022-11-15T11:02:29;17.15;;;15.85;;
21569;SDS011;57598;50.888;4.746;2022-11-15T11:04:57;16.23;;;15.23;;
21569;SDS011;57598;50.888;4.746;2022-11-15T11:07:27;16.65;;;15.65;;
21569;SDS011;57598;50.888;4.746;2022-11-15T11:09:59;17.17;;;15.98;;
21569;SDS011;57598;50.888;4.746;2022-11-15T11:12:30;16.05;;;15.05;;
21569;SDS011;57598;50.888;4.746;2022-11-15T11:14:58;16.52;;;15.52;;
21569;SDS011;57598;50.888;4.746;2022-11-15T11:17:29;16.92;;;15.70;;
21569;SDS011;57598;50.888;4.746;2022-11-15T11:20:00;16.40;;;15.40;;
21569;SDS011;57598;50.888;4.746;2022-11-15T11:22:32;17.40;;;16.30;;
21569;SDS011;57598;50.888;4.746;2022-11-15T11:25:10;18.02;;;17.02;;
21569;SDS011;57598;50.888;4.746;2022-11-15T11:27:42;17.70;;;16.70;;
21569;SDS011;57598;50.888;4.746;2022-11-15T11:30:13;19.33;;;18.02;;
21569;SDS011;57598;50.888;4.746;2022-11-15T11:32:48;17.42;;;16.35;;
21569;SDS011;57598;50.888;4.746;2022-11-15T11:35:18;19.25;;;17.30;;
21569;SDS011;57598;50.888;4.746;2022-11-15T11:37:49;18.48;;;17.25;;
21569;SDS011;57598;50.888;4.746;2022-11-15T11:40:20;17.92;;;16.83;;
21569;SDS011;57598;50.888;4.746;2022-11-15T11:42:53;17.17;;;16.17;;
21569;SDS011;57598;50.888;4.746;2022-11-15T11:45:29;17.13;;;16.13;;
21569;SDS011;57598;50.888;4.746;2022-11-15T11:48:02;17.67;;;16.58;;
21569;SDS011;57598;50.888;4.746;2022-11-15T11:50:31;17.07;;;16.07;;
21569;SDS011;57598;50.888;4.746;2022-11-15T11:53:01;17.10;;;16.10;;
21569;SDS011;57598;50.888;4.746;2022-11-15T11:55:31;17.30;;;16.25;;
21569;SDS011;57598;50.888;4.746;2022-11-15T11:58:03;16.70;;;15.70;;
21569;SDS011;57598;50.888;4.746;2022-11-15T12:00:31;17.90;;;16.42;;
21569;SDS011;57598;50.888;4.746;2022-11-15T12:03:03;17.15;;;15.77;;
21569;SDS011;57598;50.888;4.746;2022-11-15T12:05:34;16.30;;;15.30;;
21569;SDS011;57598;50.888;4.746;2022-11-15T12:08:07;17.37;;;16.27;;
21569;SDS011;57598;50.888;4.746;2022-11-15T12:10:39;17.30;;;16.30;;
21569;SDS011;57598;50.888;4.746;2022-11-15T12:13:09;18.50;;;17.30;;
21569;SDS011;57598;50.888;4.746;2022-11-15T12:15:39;16.80;;;15.80;;
21569;SDS011;57598;50.888;4.746;2022-11-15T12:18:08;17.50;;;16.50;;
21569;SDS011;57598;50.888;4.746;2022-11-15T12:20:40;17.90;;;16.80;;
21569;SDS011;57598;50.888;4.746;2022-11-15T12:23:11;19.00;;;17.80;;
21569;SDS011;57598;50.888;4.746;2022-11-15T12:25:43;19.33;;;18.10;;
21569;SDS011;57598;50.888;4.746;2022-11-15T12:28:13;18.10;;;17.10;;
21569;SDS011;57598;50.888;4.746;2022-11-15T12:30:44;18.27;;;17.27;;
21569;SDS011;57598;50.888;4.746;2022-11-15T12:33:31;17.00;;;16.00;;
21569;SDS011;57598;50.888;4.746;2022-11-15T12:35:59;22.10;;;20.48;;
21569;SDS011;57598;50.888;4.746;2022-11-15T12:41:14;18.92;;;17.83;;
21569;SDS011;57598;50.888;4.746;2022-11-15T12:43:43;17.92;;;16.88;;
21569;SDS011;57598;50.888;4.746;2022-11-15T12:46:12;27.60;;;23.58;;
21569;SDS011;57598;50.888;4.746;2022-11-15T12:57:30;24.50;;;22.80;;
21569;SDS011;57598;50.888;4.746;2022-11-15T12:59:58;22.50;;;20.95;;
21569;SDS011;57598;50.888;4.746;2022-11-15T13:02:27;20.77;;;19.58;;
21569;SDS011;57598;50.888;4.746;2022-11-15T13:07:57;22.73;;;21.33;;
21569;SDS011;57598;50.888;4.746;2022-11-15T13:10:29;20.88;;;19.67;;
21569;SDS011;57598;50.888;4.746;2022-11-15T13:12:58;23.30;;;21.80;;
21569;SDS011;57598;50.888;4.746;2022-11-15T13:15:39;22.20;;;20.80;;
21569;SDS011;57598;50.888;4.746;2022-11-15T13:18:35;20.90;;;19.73;;
21569;SDS011;57598;50.888;4.746;2022-11-15T13:21:04;20.65;;;19.55;;
21569;SDS011;57598;50.888;4.746;2022-11-15T13:23:53;20.50;;;19.40;;
21569;SDS011;57598;50.888;4.746;2022-11-15T13:26:20;19.65;;;18.55;;
21569;SDS011;57598;50.888;4.746;2022-11-15T13:28:50;20.90;;;19.70;;
21569;SDS011;57598;50.888;4.746;2022-11-15T13:33:46;20.60;;;19.48;;
21569;SDS011;57598;50.888;4.746;2022-11-15T13:36:14;20.25;;;19.15;;
21569;SDS011;57598;50.888;4.746;2022-11-15T13:38:42;20.77;;;19.58;;
21569;SDS011;57598;50.888;4.746;2022-11-15T13:41:11;20.17;;;19.08;;
21569;SDS011;57598;50.888;4.746;2022-11-15T13:43:40;21.63;;;20.33;;
21569;SDS011;57598;50.888;4.746;2022-11-15T13:46:12;21.83;;;20.63;;
21569;SDS011;57598;50.888;4.746;2022-11-15T13:51:07;22.00;;;20.70;;
21569;SDS011;57598;50.888;4.746;2022-11-15T13:53:36;22.52;;;21.23;;
21569;SDS011;57598;50.888;4.746;2022-11-15T13:56:05;22.05;;;20.85;;
21569;SDS011;57598;50.888;4.746;2022-11-15T13:58:33;22.67;;;21.48;;
21569;SDS011;57598;50.888;4.746;2022-11-15T14:01:00;22.00;;;20.80;;
21569;SDS011;57598;50.888;4.746;2022-11-15T14:03:30;22.42;;;21.23;;
21569;SDS011;57598;50.888;4.746;2022-11-15T14:06:04;22.60;;;21.40;;
21569;SDS011;57598;50.888;4.746;2022-11-15T14:08:35;23.27;;;21.98;;
21569;SDS011;57598;50.888;4.746;2022-11-15T14:11:06;22.65;;;21.35;;
21569;SDS011;57598;50.888;4.746;2022-11-15T14:13:33;21.65;;;20.45;;
21569;SDS011;57598;50.888;4.746;2022-11-15T14:16:14;21.38;;;20.17;;
21569;SDS011;57598;50.888;4.746;2022-11-15T14:18:44;21.13;;;19.93;;
21569;SDS011;57598;50.888;4.746;2022-11-15T14:21:12;22.27;;;21.08;;
21569;SDS011;57598;50.888;4.746;2022-11-15T14:23:39;23.20;;;21.90;;
21569;SDS011;57598;50.888;4.746;2022-11-15T14:26:10;21.63;;;20.42;;
21569;SDS011;57598;50.888;4.746;2022-11-15T14:28:38;23.02;;;21.73;;
21569;SDS011;57598;50.888;4.746;2022-11-15T14:31:06;23.08;;;21.83;;
21569;SDS011;57598;50.888;4.746;2022-11-15T14:33:37;26.08;;;24.67;;
21569;SDS011;57598;50.888;4.746;2022-11-15T14:36:10;29.67;;;28.08;;
21569;SDS011;57598;50.888;4.746;2022-11-15T14:38:38;47.88;;;45.38;;
21569;SDS011;57598;50.888;4.746;2022-11-15T14:41:08;78.60;;;74.50;;
21569;SDS011;57598;50.888;4.746;2022-11-15T14:46:04;137.73;;;129.82;;
21569;SDS011;57598;50.888;4.746;2022-11-15T14:48:31;304.88;;;289.90;;
21569;SDS011;57598;50.888;4.746;2022-11-15T14:50:59;224.38;;;212.27;;
21569;SDS011;57598;50.888;4.746;2022-11-15T14:53:28;242.38;;;229.40;;
21569;SDS011;57598;50.888;4.746;2022-11-15T14:55:55;217.68;;;205.57;;
21569;SDS011;57598;50.888;4.746;2022-11-15T14:58:22;235.45;;;222.30;;
21569;SDS011;57598;50.888;4.746;2022-11-15T15:00:49;130.75;;;122.65;;
21569;SDS011;57598;50.888;4.746;2022-11-15T15:03:20;116.72;;;110.32;;
21569;SDS011;57598;50.888;4.746;2022-11-15T15:05:47;104.82;;;98.68;;
21569;SDS011;57598;50.888;4.746;2022-11-15T15:08:14;114.45;;;107.65;;